createdAt,value
2019-01-27T00:02:04.655Z,97909.00
2019-01-27T00:04:35.317Z,97907.00
2019-01-27T00:07:06.637Z,97905.00
2019-01-27T00:09:39.285Z,97907.00
2019-01-27T00:12:12.217Z,97905.00
2019-01-27T00:14:42.658Z,97903.00
2019-01-27T00:17:14.227Z,97909.00
2019-01-27T00:19:44.703Z,97910.00
2019-01-27T00:22:18.624Z,97900.00
2019-01-27T00:24:49.687Z,97894.00
2019-01-27T00:27:20.975Z,97893.00
2019-01-27T00:29:55.614Z,97887.00
2019-01-27T00:32:26.101Z,97888.00
2019-01-27T00:34:57.302Z,97882.00
2019-01-27T00:37:27.978Z,97875.00
2019-01-27T00:40:01.572Z,97866.00
2019-01-27T00:42:33.427Z,97862.00
2019-01-27T00:45:04.560Z,97859.00
2019-01-27T00:47:35.130Z,97856.00
2019-01-27T00:50:06.708Z,97848.00
2019-01-27T00:52:41.042Z,97846.00
2019-01-27T00:55:16.251Z,97841.00
2019-01-27T00:57:46.740Z,97835.00
2019-01-27T01:00:22.349Z,97831.00
2019-01-27T01:02:52.871Z,97828.00
2019-01-27T01:05:23.369Z,97825.00
2019-01-27T01:07:53.994Z,97821.00
2019-01-27T01:10:24.981Z,97820.00
2019-01-27T01:12:56.715Z,97815.00
2019-01-27T01:15:27.336Z,97809.00
2019-01-27T01:17:59.001Z,97813.00
2019-01-27T01:20:29.783Z,97804.00
2019-01-27T01:23:01.007Z,97802.00
2019-01-27T01:25:31.442Z,97793.00
2019-01-27T01:28:03.302Z,97797.00
2019-01-27T01:30:34.113Z,97796.00
2019-01-27T01:33:05.053Z,97774.00
2019-01-27T01:35:35.517Z,97786.00
2019-01-27T01:38:07.549Z,97788.00
2019-01-27T01:40:38.005Z,97779.00
2019-01-27T01:43:08.594Z,97772.00
2019-01-27T01:45:39.088Z,97756.00
2019-01-27T01:48:09.547Z,97754.00
2019-01-27T01:50:40.024Z,97751.00
2019-01-27T01:53:10.530Z,97746.00
2019-01-27T01:55:41.088Z,97734.00
2019-01-27T01:58:11.543Z,97735.00
2019-01-27T02:00:42.148Z,97723.00
2019-01-27T02:03:12.651Z,97721.00
2019-01-27T02:05:43.081Z,97705.00
2019-01-27T02:08:14.025Z,97704.00
2019-01-27T02:10:46.801Z,97708.00
2019-01-27T02:13:17.263Z,97692.00
2019-01-27T02:16:09.702Z,97690.00
2019-01-27T02:18:41.690Z,97683.00
2019-01-27T02:21:12.263Z,97678.00
2019-01-27T02:23:42.775Z,97681.00
2019-01-27T02:26:13.198Z,97672.00
2019-01-27T02:28:43.620Z,97670.00
2019-01-27T02:31:15.726Z,97661.00
2019-01-27T02:33:46.171Z,97646.00
2019-01-27T02:36:17.627Z,97644.00
2019-01-27T02:38:49.972Z,97640.00
2019-01-27T02:41:20.440Z,97629.00
2019-01-27T02:43:50.915Z,97628.00
2019-01-27T02:46:21.610Z,97627.00
2019-01-27T02:48:52.134Z,97626.00
2019-01-27T02:51:29.667Z,97609.00
2019-01-27T02:54:10.517Z,97604.00
2019-01-27T02:56:41.359Z,97602.00
2019-01-27T02:59:11.825Z,97594.00
2019-01-27T03:01:42.347Z,97585.00
2019-01-27T03:04:15.462Z,97589.00
2019-01-27T03:06:54.981Z,97579.00
2019-01-27T03:09:29.881Z,97572.00
2019-01-27T03:12:00.345Z,97555.00
2019-01-27T03:14:30.793Z,97552.00
2019-01-27T03:17:02.302Z,97545.00
2019-01-27T03:19:32.772Z,97549.00
2019-01-27T03:22:03.282Z,97545.00
2019-01-27T03:24:34.196Z,97544.00
2019-01-27T03:27:04.861Z,97540.00
2019-01-27T03:29:35.286Z,97537.00
2019-01-27T03:32:06.145Z,97537.00
2019-01-27T03:34:36.584Z,97538.00
2019-01-27T03:37:07.223Z,97533.00
2019-01-27T03:39:37.764Z,97534.00
2019-01-27T03:42:08.219Z,97528.00
2019-01-27T03:44:38.723Z,97524.00
2019-01-27T03:47:09.199Z,97519.00
2019-01-27T03:49:40.193Z,97511.00
2019-01-27T03:52:10.744Z,97504.00
2019-01-27T03:54:41.181Z,97505.00
2019-01-27T03:57:11.649Z,97495.00
2019-01-27T03:59:42.100Z,97486.00
2019-01-27T04:02:12.620Z,97481.00
2019-01-27T04:04:43.171Z,97475.00
2019-01-27T04:07:14.013Z,97470.00
2019-01-27T04:09:44.454Z,97466.00
2019-01-27T04:12:15.630Z,97454.00
2019-01-27T04:14:46.039Z,97448.00
2019-01-27T04:17:16.513Z,97450.00
2019-01-27T04:19:52.482Z,97432.00
2019-01-27T04:22:26.073Z,97432.00
2019-01-27T04:24:56.488Z,97424.00
2019-01-27T04:27:26.923Z,97418.00
2019-01-27T04:29:57.664Z,97418.00
2019-01-27T04:32:31.221Z,97421.00
2019-01-27T04:35:03.206Z,97416.00
2019-01-27T04:37:33.775Z,97406.00
2019-01-27T04:40:05.021Z,97412.00
2019-01-27T04:42:37.223Z,97408.00
2019-01-27T04:45:09.313Z,97403.00
2019-01-27T04:47:40.269Z,97395.00
2019-01-27T04:50:13.139Z,97397.00
2019-01-27T04:52:45.665Z,97394.00
2019-01-27T04:55:16.900Z,97392.00
2019-01-27T04:57:47.415Z,97387.00
2019-01-27T05:00:21.449Z,97383.00
2019-01-27T05:03:13.411Z,97382.00
2019-01-27T05:05:45.646Z,97388.00
2019-01-27T05:08:16.491Z,97391.00
2019-01-27T05:10:46.936Z,97380.00
2019-01-27T05:13:18.272Z,97384.00
2019-01-27T05:15:49.551Z,97380.00
2019-01-27T05:18:20.057Z,97370.00
2019-01-27T05:20:50.591Z,97369.00
2019-01-27T05:23:22.874Z,97369.00
2019-01-27T05:25:55.253Z,97363.00
2019-01-27T05:28:26.531Z,97354.00
2019-01-27T05:31:02.503Z,97349.00
2019-01-27T05:33:37.092Z,97349.00
2019-01-27T05:36:09.930Z,97342.00
2019-01-27T05:38:40.703Z,97336.00
2019-01-27T05:41:12.173Z,97327.00
2019-01-27T05:43:43.449Z,97334.00
2019-01-27T05:46:17.034Z,97335.00
2019-01-27T05:48:48.305Z,97334.00
2019-01-27T05:51:19.015Z,97325.00
2019-01-27T05:53:52.002Z,97317.00
2019-01-27T05:56:26.619Z,97317.00
2019-01-27T05:58:57.033Z,97315.00
2019-01-27T06:01:27.463Z,97312.00
2019-01-27T06:04:00.864Z,97313.00
2019-01-27T06:06:31.300Z,97310.00
2019-01-27T06:09:01.770Z,97303.00
2019-01-27T06:11:32.601Z,97301.00
2019-01-27T06:14:05.042Z,97303.00
2019-01-27T06:16:35.812Z,97294.00
2019-01-27T06:19:06.579Z,97292.00
2019-01-27T06:21:37.798Z,97282.00
2019-01-27T06:24:08.292Z,97286.00
2019-01-27T06:26:39.359Z,97273.00
2019-01-27T06:29:11.473Z,97286.00
2019-01-27T06:31:44.266Z,97272.00
2019-01-27T06:34:16.899Z,97273.00
2019-01-27T06:36:49.085Z,97264.00
2019-01-27T06:39:24.980Z,97266.00
2019-01-27T06:41:57.482Z,97259.00
2019-01-27T06:44:29.240Z,97239.00
2019-01-27T06:47:03.859Z,97243.00
2019-01-27T06:49:34.366Z,97245.00
2019-01-27T06:52:04.847Z,97246.00
2019-01-27T06:54:35.355Z,97243.00
2019-01-27T06:57:05.791Z,97236.00
2019-01-27T06:59:42.833Z,97237.00
2019-01-27T07:02:30.183Z,97238.00
2019-01-27T07:05:20.278Z,97243.00
2019-01-27T07:08:13.852Z,97224.00
2019-01-27T07:11:21.726Z,97223.00
2019-01-27T07:14:27.551Z,97221.00
2019-01-27T07:17:35.099Z,97206.00
2019-01-27T07:20:37.672Z,97218.00
2019-01-27T07:23:23.948Z,97201.00
2019-01-27T07:26:22.167Z,97202.00
2019-01-27T07:29:27.766Z,97198.00
2019-01-27T07:32:11.816Z,97193.00
2019-01-27T07:34:51.840Z,97195.00
2019-01-27T07:37:37.772Z,97190.00
2019-01-27T07:40:30.397Z,97185.00
2019-01-27T07:43:21.879Z,97181.00
2019-01-27T07:46:11.681Z,97176.00
2019-01-27T07:49:00.127Z,97175.00
2019-01-27T07:51:57.758Z,97186.00
2019-01-27T07:54:48.940Z,97179.00
2019-01-27T07:57:45.390Z,97171.00
2019-01-27T08:00:51.504Z,97165.00
2019-01-27T08:03:40.201Z,97179.00
2019-01-27T08:06:21.524Z,97171.00
2019-01-27T08:09:09.533Z,97171.00
2019-01-27T08:11:46.890Z,97180.00
2019-01-27T08:14:53.690Z,97173.00
2019-01-27T08:17:43.127Z,97174.00
2019-01-27T08:20:27.102Z,97179.00
2019-01-27T08:23:14.439Z,97175.00
2019-01-27T08:26:02.854Z,97183.00
2019-01-27T08:29:04.353Z,97179.00
2019-01-27T08:31:46.440Z,97185.00
2019-01-27T08:34:38.920Z,97174.00
2019-01-27T08:37:32.313Z,97171.00
2019-01-27T08:40:24.630Z,97166.00
2019-01-27T08:43:29.173Z,97170.00
2019-01-27T08:46:08.748Z,97164.00
2019-01-27T08:48:39.225Z,97165.00
2019-01-27T08:51:11.479Z,97163.00
2019-01-27T08:53:41.928Z,97160.00
2019-01-27T08:56:16.216Z,97149.00
2019-01-27T08:58:46.963Z,97155.00
2019-01-27T09:01:43.371Z,97156.00
2019-01-27T09:04:21.686Z,97149.00
2019-01-27T09:06:58.634Z,97142.00
2019-01-27T09:09:49.593Z,97142.00
2019-01-27T09:12:51.910Z,97143.00
2019-01-27T09:15:51.360Z,97135.00
2019-01-27T09:18:44.411Z,97132.00
2019-01-27T09:21:32.510Z,97134.00
2019-01-27T09:24:28.161Z,97123.00
2019-01-27T09:27:14.310Z,97118.00
2019-01-27T09:30:04.165Z,97122.00
2019-01-27T09:32:56.704Z,97118.00
2019-01-27T09:35:50.465Z,97129.00
2019-01-27T09:38:34.844Z,97120.00
2019-01-27T09:41:19.597Z,97119.00
2019-01-27T09:44:10.236Z,97119.00
2019-01-27T09:47:08.944Z,97113.00
2019-01-27T09:49:51.584Z,97118.00
2019-01-27T09:52:44.277Z,97113.00
2019-01-27T09:55:33.895Z,97123.00
2019-01-27T09:58:23.805Z,97129.00
2019-01-27T10:01:07.603Z,97120.00
2019-01-27T10:03:55.593Z,97113.00
2019-01-27T10:06:42.875Z,97119.00
2019-01-27T10:09:31.152Z,97124.00
2019-01-27T10:12:20.664Z,97122.00
2019-01-27T10:15:08.298Z,97116.00
2019-01-27T10:17:54.973Z,97108.00
2019-01-27T10:20:53.663Z,97109.00
2019-01-27T10:23:37.656Z,97107.00
2019-01-27T10:26:18.622Z,97112.00
2019-01-27T10:29:07.405Z,97104.00
2019-01-27T10:43:36.671Z,97082.00
2019-01-27T10:46:32.718Z,97082.00
2019-01-27T10:49:20.926Z,97071.00
2019-01-27T10:52:19.444Z,97075.00
2019-01-27T10:55:03.748Z,97066.00
2019-01-27T10:58:12.746Z,97073.00
2019-01-27T11:03:36.261Z,97059.00
2019-01-27T11:06:42.301Z,97049.00
2019-01-27T11:09:25.125Z,97055.00
2019-01-27T11:12:13.204Z,97057.00
2019-01-27T11:14:53.909Z,97045.00
2019-01-27T11:17:43.339Z,97047.00
2019-01-27T11:20:39.915Z,97040.00
2019-01-27T11:23:31.258Z,97042.00
2019-01-27T11:26:16.880Z,97033.00
2019-01-27T11:29:10.438Z,97038.00
2019-01-27T11:32:04.918Z,97023.00
2019-01-27T11:34:53.882Z,97015.00
2019-01-27T11:38:03.150Z,97012.00
2019-01-27T11:40:56.152Z,97006.00
2019-01-27T11:43:37.743Z,96998.00
2019-01-27T11:46:17.559Z,96991.00
2019-01-27T11:48:59.226Z,96985.00
2019-01-27T11:51:51.702Z,96976.00
2019-01-27T11:54:23.313Z,96982.00
2019-01-27T11:56:55.262Z,96990.00
2019-01-27T11:59:29.353Z,96990.00
2019-01-27T12:02:00.661Z,96979.00
2019-01-27T12:04:32.081Z,96988.00
2019-01-27T12:07:02.973Z,96980.00
2019-01-27T12:09:34.788Z,96976.00
2019-01-27T12:12:07.870Z,96963.00
2019-01-27T12:14:38.715Z,96957.00
2019-01-27T12:17:09.256Z,96962.00
2019-01-27T12:19:40.390Z,96965.00
2019-01-27T12:22:13.208Z,96957.00
2019-01-27T12:24:43.744Z,96954.00
2019-01-27T12:27:15.401Z,96957.00
2019-01-27T12:29:46.026Z,96955.00
2019-01-27T12:32:18.342Z,96949.00
2019-01-27T12:34:48.960Z,96951.00
2019-01-27T12:37:19.468Z,96945.00
2019-01-27T12:39:50.116Z,96944.00
2019-01-27T12:42:20.666Z,96939.00
2019-01-27T12:44:51.259Z,96949.00
2019-01-27T12:47:22.715Z,96950.00
2019-01-27T12:49:54.405Z,96947.00
2019-01-27T12:52:24.909Z,96935.00
2019-01-27T12:54:57.207Z,96936.00
2019-01-27T12:57:28.033Z,96937.00
2019-01-27T12:59:58.646Z,96923.00
2019-01-27T13:02:29.165Z,96924.00
2019-01-27T13:05:01.911Z,96920.00
2019-01-27T13:07:32.544Z,96922.00
2019-01-27T13:10:03.801Z,96910.00
2019-01-27T13:12:34.618Z,96912.00
2019-01-27T13:15:07.254Z,96909.00
2019-01-27T13:17:39.566Z,96898.00
2019-01-27T13:20:11.315Z,96891.00
2019-01-27T13:22:44.541Z,96896.00
2019-01-27T13:25:16.590Z,96901.00
2019-01-27T13:27:47.222Z,96894.00
2019-01-27T13:30:24.793Z,96896.00
2019-01-27T13:32:57.294Z,96884.00
2019-01-27T13:35:29.199Z,96878.00
2019-01-27T13:38:01.445Z,96883.00
2019-01-27T13:40:33.585Z,96886.00
2019-01-27T13:43:04.508Z,96881.00
2019-01-27T13:45:35.078Z,96872.00
2019-01-27T13:48:06.970Z,96871.00
2019-01-27T13:50:39.408Z,96879.00
2019-01-27T13:53:11.130Z,96877.00
2019-01-27T13:55:45.634Z,96879.00
2019-01-27T13:58:23.335Z,96848.00
2019-01-27T14:00:54.158Z,96854.00
2019-01-27T14:03:33.508Z,96853.00
2019-01-27T14:06:05.542Z,96832.00
2019-01-27T14:08:39.771Z,96831.00
2019-01-27T14:11:10.614Z,96835.00
2019-01-27T14:13:51.297Z,96827.00
2019-01-27T14:16:24.878Z,96826.00
2019-01-27T14:18:58.800Z,96829.00
2019-01-27T14:21:31.826Z,96825.00
2019-01-27T14:24:06.084Z,96829.00
2019-01-27T14:26:40.113Z,96829.00
2019-01-27T14:29:10.722Z,96825.00
2019-01-27T14:31:43.838Z,96818.00
2019-01-27T14:34:14.336Z,96819.00
2019-01-27T14:36:44.818Z,96816.00
2019-01-27T14:39:15.376Z,96809.00
2019-01-27T14:41:49.066Z,96807.00
2019-01-27T14:44:23.029Z,96821.00
2019-01-27T14:46:53.827Z,96814.00
2019-01-27T14:49:24.485Z,96815.00
2019-01-27T14:51:56.966Z,96829.00
2019-01-27T14:54:29.896Z,96834.00
2019-01-27T14:57:00.621Z,96832.00
2019-01-27T14:59:32.408Z,96832.00
2019-01-27T15:02:04.138Z,96837.00
2019-01-27T15:04:35.648Z,96823.00
2019-01-27T15:07:06.367Z,96829.00
2019-01-27T15:09:36.868Z,96825.00
2019-01-27T15:12:08.697Z,96821.00
2019-01-27T15:14:42.016Z,96813.00
2019-01-27T15:17:13.665Z,96820.00
2019-01-27T15:19:44.168Z,96814.00
2019-01-27T15:22:17.497Z,96827.00
2019-01-27T15:24:50.644Z,96811.00
2019-01-27T15:27:21.926Z,96807.00
2019-01-27T15:29:52.986Z,96807.00
2019-01-27T15:32:23.891Z,96809.00
2019-01-27T15:34:54.422Z,96809.00
2019-01-27T15:37:26.682Z,96821.00
2019-01-27T15:39:59.155Z,96825.00
2019-01-27T15:42:32.460Z,96826.00
2019-01-27T15:45:04.296Z,96827.00
2019-01-27T15:47:34.801Z,96820.00
2019-01-27T15:50:08.530Z,96823.00
2019-01-27T15:52:38.990Z,96839.00
2019-01-27T15:55:15.112Z,96829.00
2019-01-27T15:57:45.658Z,96830.00
2019-01-27T16:00:22.458Z,96828.00
2019-01-27T16:02:54.060Z,96826.00
2019-01-27T16:05:27.563Z,96825.00
2019-01-27T16:07:59.975Z,96833.00
2019-01-27T16:10:35.577Z,96838.00
2019-01-27T16:13:08.246Z,96835.00
2019-01-27T16:15:40.519Z,96840.00
2019-01-27T16:18:14.821Z,96848.00
2019-01-27T16:20:47.104Z,96861.00
2019-01-27T16:23:38.045Z,96867.00
2019-01-27T16:26:10.955Z,96862.00
2019-01-27T16:28:47.883Z,96854.00
2019-01-27T16:31:36.860Z,96859.00
2019-01-27T16:34:23.640Z,96850.00
2019-01-27T16:36:54.360Z,96854.00
2019-01-27T16:39:25.679Z,96848.00
2019-01-27T16:41:59.398Z,96849.00
2019-01-27T16:44:31.438Z,96847.00
2019-01-27T16:47:02.908Z,96843.00
2019-01-27T16:49:35.313Z,96847.00
2019-01-27T16:52:05.858Z,96833.00
2019-01-27T16:54:38.699Z,96824.00
2019-01-27T16:57:09.314Z,96826.00
2019-01-27T16:59:41.803Z,96821.00
2019-01-27T17:02:12.420Z,96814.00
2019-01-27T17:04:42.894Z,96817.00
2019-01-27T17:07:16.053Z,96803.00
2019-01-27T17:09:47.682Z,96797.00
2019-01-27T17:15:11.150Z,96805.00
2019-01-27T17:17:43.826Z,96806.00
2019-01-27T17:20:18.700Z,96811.00
2019-01-27T17:22:49.623Z,96808.00
2019-01-27T17:25:20.202Z,96805.00
2019-01-27T17:27:51.019Z,96804.00
2019-01-27T17:30:23.253Z,96797.00
2019-01-27T17:32:57.727Z,96805.00
2019-01-27T17:35:32.758Z,96807.00
2019-01-27T17:38:03.484Z,96811.00
2019-01-27T17:40:44.884Z,96806.00
2019-01-27T17:43:18.004Z,96805.00
2019-01-27T17:45:49.294Z,96796.00
2019-01-27T17:48:20.404Z,96796.00
2019-01-27T17:50:58.863Z,96797.00
2019-01-27T17:53:31.465Z,96792.00
2019-01-27T17:56:06.452Z,96797.00
2019-01-27T17:59:02.057Z,96790.00
2019-01-27T18:01:59.837Z,96789.00
2019-01-27T18:04:40.348Z,96798.00
2019-01-27T18:07:28.293Z,96797.00
2019-01-27T18:10:06.127Z,96795.00
2019-01-27T18:12:46.964Z,96804.00
2019-01-27T18:15:17.498Z,96801.00
2019-01-27T18:17:49.243Z,96800.00
2019-01-27T18:20:40.089Z,96801.00
2019-01-27T18:23:10.581Z,96801.00
2019-01-27T18:25:42.638Z,96800.00
2019-01-27T18:28:14.606Z,96797.00
2019-01-27T18:30:45.714Z,96802.00
2019-01-27T18:33:17.006Z,96801.00
2019-01-27T18:35:47.798Z,96790.00
2019-01-27T18:38:18.330Z,96790.00
2019-01-27T18:40:51.967Z,96795.00
2019-01-27T18:43:24.582Z,96795.00
2019-01-27T18:45:56.504Z,96795.00
2019-01-27T18:48:29.934Z,96802.00
2019-01-27T18:51:02.583Z,96791.00
2019-01-27T18:54:07.195Z,96791.00
2019-01-27T18:57:01.423Z,96794.00
2019-01-27T18:59:47.366Z,96790.00
2019-01-27T19:02:30.980Z,96803.00
2019-01-27T19:05:12.051Z,96803.00
2019-01-27T19:08:04.055Z,96802.00
2019-01-27T19:10:58.339Z,96803.00
2019-01-27T19:13:53.707Z,96798.00
2019-01-27T19:16:46.082Z,96803.00
2019-01-27T19:19:47.658Z,96804.00
2019-01-27T19:22:34.914Z,96794.00
2019-01-27T19:25:27.221Z,96806.00
2019-01-27T19:28:20.808Z,96795.00
2019-01-27T19:31:17.496Z,96810.00
2019-01-27T19:34:07.348Z,96809.00
2019-01-27T19:36:59.105Z,96815.00
2019-01-27T19:39:47.825Z,96804.00
2019-01-27T19:42:28.567Z,96817.00
2019-01-27T19:45:20.939Z,96816.00
2019-01-27T19:48:20.214Z,96809.00
2019-01-27T19:51:19.906Z,96815.00
2019-01-27T19:54:00.554Z,96811.00
2019-01-27T19:57:05.957Z,96807.00
2019-01-27T19:59:53.029Z,96810.00
2019-01-27T20:02:45.136Z,96818.00
2019-01-27T20:05:54.545Z,96812.00
2019-01-27T20:08:34.758Z,96813.00
2019-01-27T20:11:27.781Z,96817.00
2019-01-27T20:14:19.573Z,96819.00
2019-01-27T20:16:58.615Z,96823.00
2019-01-27T20:19:39.997Z,96821.00
2019-01-27T20:22:26.591Z,96832.00
2019-01-27T20:25:28.197Z,96830.00
2019-01-27T20:28:11.771Z,96828.00
2019-01-27T20:31:09.684Z,96829.00
2019-01-27T20:34:12.812Z,96822.00
2019-01-27T20:36:52.198Z,96823.00
2019-01-27T20:39:56.206Z,96821.00
2019-01-27T20:42:41.649Z,96822.00
2019-01-27T20:45:42.825Z,96820.00
2019-01-27T20:48:38.587Z,96831.00
2019-01-27T20:51:43.501Z,96828.00
2019-01-27T20:54:35.683Z,96822.00
2019-01-27T20:57:18.413Z,96813.00
2019-01-27T20:59:58.026Z,96820.00
2019-01-27T21:03:02.273Z,96822.00
2019-01-27T21:05:40.283Z,96821.00
2019-01-27T21:08:16.239Z,96820.00
2019-01-27T21:11:01.013Z,96822.00
2019-01-27T21:13:49.127Z,96820.00
2019-01-27T21:16:41.552Z,96825.00
2019-01-27T21:19:38.189Z,96815.00
2019-01-27T21:22:12.938Z,96831.00
2019-01-27T21:24:45.072Z,96830.00
2019-01-27T21:27:15.534Z,96822.00
2019-01-27T21:29:46.071Z,96824.00
2019-01-27T21:32:16.971Z,96830.00
2019-01-27T21:34:47.370Z,96821.00
2019-01-27T21:37:19.452Z,96828.00
2019-01-27T21:39:54.388Z,96823.00
2019-01-27T21:42:25.417Z,96818.00
2019-01-27T21:44:55.887Z,96822.00
2019-01-27T21:47:26.515Z,96826.00
2019-01-27T21:50:00.595Z,96823.00
2019-01-27T21:52:52.834Z,96795.00
2019-01-27T21:55:25.463Z,96828.00
2019-01-27T21:57:58.860Z,96815.00
2019-01-27T22:00:30.570Z,96823.00
2019-01-27T22:03:03.866Z,96810.00
2019-01-27T22:05:34.679Z,96818.00
2019-01-27T22:08:05.512Z,96818.00
2019-01-27T22:10:36.051Z,96811.00
2019-01-27T22:13:07.986Z,96815.00
2019-01-27T22:15:38.816Z,96818.00
2019-01-27T22:18:12.185Z,96814.00
2019-01-27T22:20:44.199Z,96822.00
2019-01-27T22:23:14.649Z,96821.00
2019-01-27T22:25:48.946Z,96816.00
2019-01-27T22:28:22.419Z,96826.00
2019-01-27T22:30:54.110Z,96824.00
2019-01-27T22:33:25.133Z,96826.00
2019-01-27T22:35:56.403Z,96823.00
2019-01-27T22:38:28.177Z,96825.00
2019-01-27T22:40:58.729Z,96821.00
2019-01-27T22:43:29.654Z,96825.00
2019-01-27T22:46:00.975Z,96831.00
2019-01-27T22:48:33.187Z,96839.00
2019-01-27T22:51:04.581Z,96849.00
2019-01-27T22:53:35.056Z,96841.00
2019-01-27T22:56:07.598Z,96846.00
2019-01-27T22:58:41.136Z,96856.00
2019-01-27T23:01:16.255Z,96842.00
2019-01-27T23:03:54.993Z,96849.00
2019-01-27T23:06:28.700Z,96845.00
2019-01-27T23:08:59.739Z,96848.00
2019-01-27T23:11:32.580Z,96847.00
2019-01-27T23:14:03.091Z,96840.00
2019-01-27T23:16:33.722Z,96848.00
2019-01-27T23:19:06.051Z,96846.00
2019-01-27T23:21:36.543Z,96850.00
2019-01-27T23:24:08.312Z,96846.00
2019-01-27T23:26:39.671Z,96853.00
2019-01-27T23:29:10.258Z,96855.00
2019-01-27T23:31:42.022Z,96850.00
2019-01-27T23:34:13.218Z,96847.00
2019-01-27T23:36:44.555Z,96858.00
2019-01-27T23:39:18.406Z,96869.00
2019-01-27T23:41:56.140Z,96870.00
2019-01-27T23:44:27.366Z,96873.00
2019-01-27T23:46:57.804Z,96870.00
2019-01-27T23:49:28.244Z,96874.00
2019-01-27T23:51:58.725Z,96879.00
2019-01-27T23:54:29.148Z,96883.00
2019-01-27T23:56:59.638Z,96876.00
2019-01-27T23:59:30.086Z,96884.00
